createdAt,value
2022-12-05T00:02:22.171Z,32.90
2022-12-05T00:07:24.034Z,31.33
2022-12-05T00:12:25.842Z,32.95
2022-12-05T00:17:27.660Z,28.65
2022-12-05T00:22:29.480Z,35.10
2022-12-05T00:27:31.314Z,36.67
2022-12-05T00:32:33.109Z,30.35
2022-12-05T00:37:34.906Z,36.53
2022-12-05T00:42:36.827Z,33.03
2022-12-05T00:47:38.756Z,36.67
2022-12-05T00:52:40.569Z,32.20
2022-12-05T00:57:42.362Z,33.58
2022-12-05T01:02:44.268Z,32.90
2022-12-05T01:07:46.161Z,30.05
2022-12-05T01:12:48.024Z,31.25
2022-12-05T01:17:49.853Z,38.40
2022-12-05T01:22:51.742Z,32.95
2022-12-05T01:27:53.561Z,35.53
2022-12-05T01:32:55.492Z,35.22
2022-12-05T01:37:57.350Z,33.17
2022-12-05T01:42:59.359Z,36.35
2022-12-05T01:48:03.419Z,34.85
2022-12-05T01:53:05.512Z,36.78
2022-12-05T01:58:08.227Z,41.10
2022-12-05T02:03:14.390Z,44.00
2022-12-05T02:08:16.581Z,46.72
2022-12-05T02:13:37.082Z,44.95
2022-12-05T02:18:39.219Z,42.00
2022-12-05T02:23:56.043Z,40.35
2022-12-05T02:29:08.626Z,40.33
2022-12-05T02:34:22.493Z,40.75
2022-12-05T02:44:43.048Z,39.72
2022-12-05T02:49:44.994Z,38.13
2022-12-05T02:54:48.331Z,42.22
2022-12-05T03:04:52.196Z,44.63
2022-12-05T03:10:00.974Z,46.35
2022-12-05T03:15:05.715Z,45.15
2022-12-05T03:20:07.765Z,41.47
2022-12-05T03:25:10.387Z,41.25
2022-12-05T03:30:14.438Z,45.22
2022-12-05T03:35:34.742Z,38.95
2022-12-05T03:40:46.511Z,41.45
2022-12-05T03:46:00.435Z,43.00
2022-12-05T03:51:03.616Z,43.03
2022-12-05T03:56:08.492Z,42.42
2022-12-05T04:01:11.192Z,39.67
2022-12-05T04:06:32.913Z,43.25
2022-12-05T04:11:38.666Z,36.35
2022-12-05T04:16:46.286Z,32.40
2022-12-05T04:21:50.524Z,36.35
2022-12-05T04:26:56.517Z,30.83
2022-12-05T04:32:01.145Z,32.25
2022-12-05T04:37:05.176Z,33.90
2022-12-05T04:42:18.030Z,36.15
2022-12-05T04:47:22.067Z,32.73
2022-12-05T04:52:24.396Z,31.77
2022-12-05T04:57:35.518Z,36.30
2022-12-05T05:02:46.736Z,32.85
2022-12-05T05:07:50.014Z,31.63
2022-12-05T05:17:53.533Z,31.08
2022-12-05T05:22:55.956Z,35.65
2022-12-05T05:27:57.796Z,34.97
2022-12-05T05:33:00.099Z,34.50
2022-12-05T05:38:01.968Z,32.17
2022-12-05T05:43:03.928Z,32.95
2022-12-05T05:48:05.790Z,30.55
2022-12-05T05:53:07.599Z,29.10
2022-12-05T05:58:09.455Z,29.13
2022-12-05T06:03:11.381Z,26.25
2022-12-05T06:08:13.286Z,28.05
2022-12-05T06:13:15.110Z,25.60
2022-12-05T06:18:16.956Z,27.70
2022-12-05T06:23:18.836Z,20.95
2022-12-05T06:28:21.783Z,22.15
2022-12-05T06:33:23.595Z,16.25
2022-12-05T06:38:25.416Z,14.63
2022-12-05T06:43:27.267Z,14.27
2022-12-05T06:48:29.149Z,13.50
2022-12-05T06:53:30.993Z,13.50
2022-12-05T06:58:32.845Z,12.13
2022-12-05T07:03:34.856Z,10.23
2022-12-05T07:08:36.669Z,13.05
2022-12-05T07:13:38.465Z,12.98
2022-12-05T07:18:40.682Z,13.40
2022-12-05T07:23:43.994Z,13.98
2022-12-05T07:33:47.479Z,9.27
2022-12-05T07:38:49.316Z,13.52
2022-12-05T07:43:51.965Z,11.45
2022-12-05T07:48:54.344Z,11.68
2022-12-05T07:53:56.159Z,13.07
2022-12-05T07:58:57.993Z,10.52
2022-12-05T08:03:59.976Z,11.25
2022-12-05T08:09:01.782Z,12.80
2022-12-05T08:14:04.884Z,13.10
2022-12-05T08:19:08.372Z,12.00
2022-12-05T08:24:10.885Z,13.15
2022-12-05T08:29:14.095Z,12.17
2022-12-05T08:34:17.517Z,13.32
2022-12-05T08:39:19.824Z,12.93
2022-12-05T08:44:21.631Z,13.70
2022-12-05T08:49:23.464Z,12.90
2022-12-05T08:54:25.317Z,15.48
2022-12-05T08:59:27.130Z,13.65
2022-12-05T09:04:28.914Z,14.05
2022-12-05T09:09:30.720Z,15.02
2022-12-05T09:14:32.538Z,15.05
2022-12-05T09:19:34.351Z,15.38
2022-12-05T09:24:36.234Z,13.65
2022-12-05T09:29:38.079Z,15.07
2022-12-05T09:34:39.949Z,15.55
2022-12-05T09:39:43.227Z,14.43
2022-12-05T09:44:45.011Z,16.60
2022-12-05T09:50:07.050Z,18.48
2022-12-05T09:55:13.473Z,17.08
2022-12-05T10:00:15.593Z,17.67
2022-12-05T10:05:27.834Z,14.95
2022-12-05T10:10:47.873Z,17.85
2022-12-05T10:15:57.286Z,23.27
2022-12-05T10:21:05.409Z,20.83
2022-12-05T10:26:09.416Z,21.15
2022-12-05T10:31:13.539Z,19.67
2022-12-05T10:36:15.723Z,17.35
2022-12-05T10:41:17.699Z,14.45
2022-12-05T10:46:19.512Z,21.52
2022-12-05T10:51:25.728Z,19.50
2022-12-05T10:56:36.595Z,18.67
2022-12-05T11:01:43.163Z,17.42
2022-12-05T11:06:52.534Z,15.18
2022-12-05T11:12:17.670Z,18.42
2022-12-05T11:17:24.686Z,16.25
2022-12-05T11:22:48.740Z,17.27
2022-12-05T11:33:10.170Z,17.60
2022-12-05T11:38:12.339Z,13.55
2022-12-05T11:43:17.151Z,12.00
2022-12-05T11:48:33.996Z,10.98
2022-12-05T11:53:47.718Z,13.98
2022-12-05T11:59:15.829Z,10.63
2022-12-05T12:04:37.912Z,12.68
2022-12-05T12:09:42.714Z,8.93
2022-12-05T12:14:44.543Z,12.38
2022-12-05T12:20:15.888Z,7.97
2022-12-05T12:25:50.185Z,7.65
2022-12-05T12:30:51.984Z,7.05
2022-12-05T12:35:59.128Z,6.70
2022-12-05T12:41:08.520Z,9.98
2022-12-05T12:46:13.179Z,7.43
2022-12-05T12:51:15.126Z,6.47
2022-12-05T12:56:39.644Z,8.30
2022-12-05T13:01:47.671Z,8.38
2022-12-05T13:06:49.574Z,6.95
2022-12-05T13:11:51.920Z,7.63
2022-12-05T13:16:54.883Z,9.87
2022-12-05T13:22:00.684Z,8.13
2022-12-05T13:27:08.678Z,10.75
2022-12-05T13:32:30.744Z,8.57
2022-12-05T13:37:33.632Z,6.93
2022-12-05T13:42:35.439Z,7.40
2022-12-05T13:47:55.969Z,7.20
2022-12-05T13:53:03.297Z,7.50
2022-12-05T13:58:20.493Z,7.55
2022-12-05T14:03:34.303Z,5.30
2022-12-05T14:13:42.270Z,5.35
2022-12-05T14:18:49.153Z,6.38
2022-12-05T14:24:09.759Z,5.90
2022-12-05T14:29:19.943Z,5.03
2022-12-05T14:34:23.031Z,6.35
2022-12-05T14:39:27.661Z,5.65
2022-12-05T14:44:29.921Z,8.20
2022-12-05T14:49:54.807Z,9.55
2022-12-05T14:55:05.226Z,6.18
2022-12-05T15:00:07.376Z,7.03
2022-12-05T15:05:18.540Z,8.25
2022-12-05T15:10:25.001Z,6.22
2022-12-05T15:15:26.933Z,7.43
2022-12-05T15:20:38.866Z,7.72
2022-12-05T15:25:42.659Z,8.45
2022-12-05T15:30:54.237Z,10.68
2022-12-05T15:35:56.387Z,6.72
2022-12-05T15:40:58.270Z,8.98
2022-12-05T15:46:07.204Z,10.13
2022-12-05T15:51:09.167Z,12.98
2022-12-05T15:56:10.939Z,9.00
2022-12-05T16:01:33.213Z,11.40
2022-12-05T16:06:37.728Z,10.90
2022-12-05T16:11:39.840Z,10.18
2022-12-05T16:16:41.743Z,9.48
2022-12-05T16:21:47.079Z,11.60
2022-12-05T16:26:58.300Z,11.43
2022-12-05T16:32:01.146Z,10.73
2022-12-05T16:37:02.993Z,13.85
2022-12-05T16:42:17.051Z,18.13
2022-12-05T16:47:26.528Z,10.65
2022-12-05T16:52:30.358Z,10.45
2022-12-05T16:57:32.193Z,12.20
2022-12-05T17:02:34.069Z,9.32
2022-12-05T17:07:36.078Z,13.10
2022-12-05T17:12:38.801Z,12.00
2022-12-05T17:17:41.299Z,11.60
2022-12-05T17:22:43.171Z,13.68
2022-12-05T17:27:44.960Z,11.13
2022-12-05T17:32:46.782Z,12.57
2022-12-05T17:37:49.294Z,13.23
2022-12-05T17:42:51.231Z,13.18
2022-12-05T17:47:53.060Z,16.48
2022-12-05T17:52:55.583Z,12.55
2022-12-05T17:57:57.395Z,13.30
2022-12-05T18:02:59.238Z,17.77
2022-12-05T18:08:01.108Z,22.25
2022-12-05T18:13:02.980Z,16.00
2022-12-05T18:18:04.793Z,15.00
2022-12-05T18:23:06.636Z,15.63
2022-12-05T18:28:08.464Z,17.52
2022-12-05T18:33:10.263Z,17.50
2022-12-05T18:38:12.498Z,18.73
2022-12-05T18:43:14.344Z,15.43
2022-12-05T18:48:38.012Z,16.98
2022-12-05T18:53:38.139Z,17.80
2022-12-05T18:58:39.968Z,14.18
2022-12-05T19:03:41.842Z,19.20
2022-12-05T19:08:44.482Z,15.50
2022-12-05T19:13:46.309Z,16.23
2022-12-05T19:18:52.198Z,13.82
2022-12-05T19:23:54.352Z,15.88
2022-12-05T19:28:56.611Z,16.73
2022-12-05T19:34:01.526Z,16.85
2022-12-05T19:39:08.724Z,16.63
2022-12-05T19:44:10.530Z,21.52
2022-12-05T19:49:13.582Z,19.70
2022-12-05T19:54:15.438Z,18.13
2022-12-05T19:59:17.288Z,17.92
2022-12-05T20:04:19.110Z,17.33
2022-12-05T20:09:21.708Z,17.10
2022-12-05T20:14:24.587Z,23.27
2022-12-05T20:19:26.416Z,20.55
2022-12-05T20:24:28.286Z,20.85
2022-12-05T20:29:30.096Z,17.27
2022-12-05T20:34:32.012Z,21.55
2022-12-05T20:39:33.850Z,22.83
2022-12-05T20:44:35.668Z,20.08
2022-12-05T20:49:37.557Z,18.30
2022-12-05T20:54:39.393Z,25.17
2022-12-05T20:59:41.247Z,19.85
2022-12-05T21:04:43.145Z,25.77
2022-12-05T21:09:44.989Z,24.25
2022-12-05T21:14:46.805Z,22.08
2022-12-05T21:19:48.641Z,25.33
2022-12-05T21:24:50.492Z,25.25
2022-12-05T21:29:52.334Z,21.52
2022-12-05T21:34:54.148Z,23.67
2022-12-05T21:39:56.023Z,23.65
2022-12-05T21:44:58.065Z,24.30
2022-12-05T21:50:00.239Z,22.38
2022-12-05T21:55:02.316Z,18.20
2022-12-05T22:00:07.459Z,21.08
2022-12-05T22:05:09.391Z,22.70
2022-12-05T22:10:11.323Z,17.10
2022-12-05T22:15:13.193Z,19.98
2022-12-05T22:20:15.019Z,18.83
2022-12-05T22:25:16.843Z,16.77
2022-12-05T22:30:18.673Z,21.33
2022-12-05T22:35:20.487Z,17.63
2022-12-05T22:40:22.340Z,16.25
2022-12-05T22:45:24.135Z,26.40
2022-12-05T22:50:25.933Z,19.05
2022-12-05T22:55:27.731Z,14.95
2022-12-05T23:00:29.600Z,16.73
2022-12-05T23:05:31.495Z,20.23
2022-12-05T23:10:33.362Z,18.13
2022-12-05T23:15:37.372Z,24.15
2022-12-05T23:20:39.250Z,21.77
2022-12-05T23:25:41.766Z,21.63
2022-12-05T23:30:43.624Z,19.07
2022-12-05T23:35:45.518Z,25.98
2022-12-05T23:40:59.649Z,20.08
2022-12-05T23:46:02.261Z,17.80
2022-12-05T23:51:15.281Z,21.47
2022-12-05T23:56:20.155Z,16.93
